Izaña en Tenerife

latitud = 28° 18' 32''N | longitud = 016° 29' 58''W
2371 metros sobre el nivel del mar | datos mensuales

Fecha, hora, temperatura, viento dirección y velocidad, humedad y presión.

  • 24-05-2018 15:00:00 | 10.10°C | Noroeste |26.00 km/h | 36.00% | 767.50 hPa
  • 24-05-2018 14:00:00 | 9.10°C | Noroeste |30.00 km/h | 48.00% | 767.70 hPa
  • 24-05-2018 13:00:00 | 8.90°C | Noroeste |34.00 km/h | 49.00% | 767.70 hPa
  • 24-05-2018 12:00:00 | 7.90°C | Noroeste |33.00 km/h | 51.00% | 767.70 hPa
  • 24-05-2018 11:00:00 | 7.70°C | Noroeste |32.00 km/h | 60.00% | 767.50 hPa
  • 24-05-2018 10:00:00 | 5.90°C | Noroeste |37.00 km/h | 55.00% | 767.10 hPa
  • 24-05-2018 09:00:00 | 4.30°C | Noroeste |42.00 km/h | 69.00% | 766.50 hPa
  • 24-05-2018 08:00:00 | 3.50°C | Noroeste |42.00 km/h | 67.00% | 766.20 hPa
  • 24-05-2018 07:00:00 | 3.10°C | Noroeste |44.00 km/h | 66.00% | 765.90 hPa
  • 24-05-2018 06:00:00 | 4.10°C | Noroeste |42.00 km/h | 60.00% | 766.00 hPa
  • 24-05-2018 05:00:00 | 4.30°C | Noroeste |41.00 km/h | 52.00% | 766.00 hPa
  • 24-05-2018 04:00:00 | 4.60°C | Noroeste |45.00 km/h | 46.00% | 766.00 hPa
  • 24-05-2018 03:00:00 | 4.50°C | Noroeste |40.00 km/h | 13.00% | 766.40 hPa
  • 24-05-2018 02:00:00 | 4.80°C | Noroeste |42.00 km/h | 10.00% | 766.70 hPa
  • 24-05-2018 01:00:00 | 5.10°C | Noroeste |44.00 km/h | 9.00% | 767.00 hPa
  • 24-05-2018 00:00:00 | 4.00°C | Noroeste |44.00 km/h | 5.00% | 767.10 hPa
  • 23-05-2018 23:00:00 | 3.80°C | Noroeste |44.00 km/h | 6.00% | 766.90 hPa
  • 23-05-2018 22:00:00 | 3.40°C | Noroeste |47.00 km/h | 10.00% | 766.60 hPa
  • 23-05-2018 21:00:00 | 3.60°C | Noroeste |46.00 km/h | 18.00% | 766.00 hPa
  • 23-05-2018 20:00:00 | 5.60°C | Noroeste |35.00 km/h | 40.00% | 766.10 hPa
  • 23-05-2018 19:00:00 | 8.30°C | Noroeste |29.00 km/h | 40.00% | 766.30 hPa
  • 23-05-2018 18:00:00 | 8.70°C | Noroeste |25.00 km/h | 42.00% | 766.50 hPa
  • 23-05-2018 17:00:00 | 6.10°C | Noroeste |19.00 km/h | 89.00% | 766.60 hPa
  • 23-05-2018 16:00:00 | 7.60°C | Noroeste |9.00 km/h | 62.00% | 766.80 hPa